createdAt,value
2022-11-05T00:01:50.071Z,100028.25
2022-11-05T00:04:36.441Z,100027.97
2022-11-05T00:07:26.208Z,100035.72
2022-11-05T00:09:59.030Z,100036.31
2022-11-05T00:12:45.063Z,100037.03
2022-11-05T00:15:31.144Z,100037.78
2022-11-05T00:17:59.560Z,100044.59
2022-11-05T00:20:28.036Z,100048.88
2022-11-05T00:23:19.933Z,100047.88
2022-11-05T00:25:55.805Z,100052.97
2022-11-05T00:28:24.235Z,100044.13
2022-11-05T00:30:53.076Z,100046.66
2022-11-05T00:33:21.750Z,100050.03
2022-11-05T00:35:50.167Z,100050.72
2022-11-05T00:38:19.975Z,100054.94
2022-11-05T00:40:48.417Z,100054.78
2022-11-05T00:43:34.382Z,100052.09
2022-11-05T00:46:02.896Z,100063.19
2022-11-05T00:48:48.508Z,100063.00
2022-11-05T00:51:17.216Z,100076.72
2022-11-05T00:53:47.021Z,100080.06
2022-11-05T00:56:15.631Z,100092.94
2022-11-05T00:58:43.982Z,100093.59
2022-11-05T01:01:12.565Z,100087.41
2022-11-05T01:03:42.759Z,100092.50
2022-11-05T01:06:16.175Z,100099.22
2022-11-05T01:08:47.190Z,100096.50
2022-11-05T01:11:32.958Z,100102.44
2022-11-05T01:14:02.281Z,100105.66
2022-11-05T01:16:30.962Z,100103.81
2022-11-05T01:18:59.309Z,100100.13
2022-11-05T01:21:27.811Z,100105.16
2022-11-05T01:23:57.567Z,100101.56
2022-11-05T01:26:26.156Z,100106.63
2022-11-05T01:28:55.164Z,100109.81
2022-11-05T01:31:24.573Z,100113.09
2022-11-05T01:33:53.043Z,100116.41
2022-11-05T01:36:21.526Z,100118.88
2022-11-05T01:38:49.872Z,100130.00
2022-11-05T01:41:19.666Z,100128.97
2022-11-05T01:43:50.219Z,100134.91
2022-11-05T01:46:21.008Z,100129.69
2022-11-05T01:48:56.140Z,100139.13
2022-11-05T01:51:29.089Z,100143.28
2022-11-05T01:54:03.961Z,100138.84
2022-11-05T01:56:38.685Z,100146.53
2022-11-05T01:59:09.174Z,100137.72
2022-11-05T02:01:38.024Z,100144.56
2022-11-05T02:04:11.173Z,100147.94
2022-11-05T02:06:46.020Z,100152.22
2022-11-05T02:09:19.917Z,100139.97
2022-11-05T02:11:51.801Z,100148.66
2022-11-05T02:14:20.333Z,100145.94
2022-11-05T02:16:54.382Z,100149.34
2022-11-05T02:19:54.492Z,100155.31
2022-11-05T02:22:53.193Z,100161.25
2022-11-05T02:25:57.247Z,100166.31
2022-11-05T02:28:45.523Z,100162.75
2022-11-05T02:31:21.266Z,100167.84
2022-11-05T02:33:58.115Z,100166.94
2022-11-05T02:36:37.960Z,100161.66
2022-11-05T02:39:21.580Z,100174.66
2022-11-05T02:42:04.896Z,100167.75
2022-11-05T02:44:41.309Z,100168.63
2022-11-05T02:47:23.132Z,100175.63
2022-11-05T02:49:59.459Z,100164.41
2022-11-05T02:52:37.451Z,100154.00
2022-11-05T02:55:14.617Z,100159.16
2022-11-05T02:57:45.897Z,100159.06
2022-11-05T03:00:47.718Z,100158.09
2022-11-05T03:03:22.954Z,100166.75
2022-11-05T03:06:09.708Z,100170.16
2022-11-05T03:08:51.712Z,100167.50
2022-11-05T03:11:22.535Z,100165.78
2022-11-05T03:13:59.211Z,100160.59
2022-11-05T03:16:36.976Z,100159.75
2022-11-05T03:19:14.406Z,100165.03
2022-11-05T03:21:47.323Z,100165.91
2022-11-05T03:24:19.689Z,100164.28
2022-11-05T03:26:53.556Z,100164.41
2022-11-05T03:29:28.226Z,100165.44
2022-11-05T03:31:58.126Z,100158.53
2022-11-05T03:34:32.789Z,100168.16
2022-11-05T03:37:02.004Z,100157.84
2022-11-05T03:39:33.590Z,100166.56
2022-11-05T03:42:05.098Z,100168.38
2022-11-05T03:44:37.589Z,100170.16
2022-11-05T03:47:08.362Z,100172.00
2022-11-05T03:49:42.126Z,100186.78
2022-11-05T03:52:17.226Z,100187.66
2022-11-05T03:54:46.124Z,100190.31
2022-11-05T03:57:20.313Z,100191.22
2022-11-05T03:59:51.957Z,100191.22
2022-11-05T04:02:26.243Z,100195.50
2022-11-05T04:05:03.683Z,100198.94
2022-11-05T04:07:50.104Z,100198.06
2022-11-05T04:10:59.982Z,100202.38
2022-11-05T04:13:32.769Z,100210.94
2022-11-05T04:16:19.451Z,100209.09
2022-11-05T04:18:49.093Z,100209.84
2022-11-05T04:21:37.156Z,100211.50
2022-11-05T04:24:09.591Z,100221.72
2022-11-05T04:26:45.540Z,100222.47
2022-11-05T04:29:34.385Z,100223.22
2022-11-05T04:32:03.395Z,100222.22
2022-11-05T04:34:43.493Z,100219.53
2022-11-05T04:37:15.898Z,100224.59
2022-11-05T04:39:45.408Z,100221.03
2022-11-05T04:42:19.748Z,100220.09
2022-11-05T04:44:49.263Z,100221.66
2022-11-05T04:47:18.306Z,100225.81
2022-11-05T04:50:03.837Z,100227.47
2022-11-05T04:52:33.697Z,100218.59
2022-11-05T04:55:02.022Z,100221.06
2022-11-05T04:57:30.348Z,100225.38
2022-11-05T04:59:58.699Z,100226.06
2022-11-05T05:02:27.121Z,100225.09
2022-11-05T05:04:55.425Z,100225.84
2022-11-05T05:07:23.744Z,100224.81
2022-11-05T05:09:54.856Z,100226.44
2022-11-05T05:12:23.938Z,100228.06
2022-11-05T05:14:52.308Z,100225.31
2022-11-05T05:17:20.677Z,100224.28
2022-11-05T05:20:06.317Z,100223.22
2022-11-05T05:22:34.847Z,100233.47
2022-11-05T05:25:05.416Z,100237.69
2022-11-05T05:27:33.748Z,100232.38
2022-11-05T05:30:02.088Z,100239.19
2022-11-05T05:32:30.472Z,100236.44
2022-11-05T05:34:58.825Z,100241.56
2022-11-05T05:37:27.120Z,100245.72
2022-11-05T05:39:55.437Z,100236.09
2022-11-05T05:42:25.170Z,100242.00
2022-11-05T05:44:53.492Z,100241.88
2022-11-05T05:47:21.815Z,100246.09
2022-11-05T05:49:50.696Z,100246.88
2022-11-05T05:52:19.112Z,100242.44
2022-11-05T05:54:47.454Z,100246.69
2022-11-05T05:57:15.781Z,100249.19
2022-11-05T05:59:45.509Z,100257.81
2022-11-05T06:02:13.938Z,100254.31
2022-11-05T06:04:42.347Z,100259.50
2022-11-05T06:07:10.689Z,100266.41
2022-11-05T06:09:39.031Z,100265.41
2022-11-05T06:12:07.840Z,100265.41
2022-11-05T06:14:36.167Z,100272.22
2022-11-05T06:17:07.747Z,100281.72
2022-11-05T06:19:36.169Z,100275.66
2022-11-05T06:22:04.614Z,100284.28
2022-11-05T06:24:32.997Z,100285.91
2022-11-05T06:27:01.312Z,100289.28
2022-11-05T06:29:29.668Z,100298.78
2022-11-05T06:31:58.086Z,100296.13
2022-11-05T06:34:27.789Z,100294.31
2022-11-05T06:36:56.130Z,100297.75
2022-11-05T06:39:24.464Z,100304.56
2022-11-05T06:44:41.198Z,100303.56
2022-11-05T06:47:09.579Z,100302.69
2022-11-05T06:49:39.254Z,100312.97
2022-11-05T06:52:07.598Z,100318.13
2022-11-05T06:54:35.905Z,100322.41
2022-11-05T06:57:04.627Z,100318.03
2022-11-05T06:59:33.173Z,100325.81
2022-11-05T07:02:01.590Z,100326.63
2022-11-05T07:04:30.086Z,100337.00
2022-11-05T07:07:01.312Z,100333.50
2022-11-05T07:09:30.005Z,100329.13
2022-11-05T07:11:58.302Z,100331.72
2022-11-05T07:14:26.678Z,100336.09
2022-11-05T07:16:54.989Z,100334.41
2022-11-05T07:19:23.384Z,100345.69
2022-11-05T07:21:52.417Z,100344.84
2022-11-05T07:24:22.147Z,100350.13
2022-11-05T07:26:50.566Z,100346.72
2022-11-05T07:29:18.878Z,100357.19
2022-11-05T07:31:47.931Z,100355.56
2022-11-05T07:34:16.280Z,100362.53
2022-11-05T07:36:44.651Z,100364.38
2022-11-05T07:39:12.952Z,100367.97
2022-11-05T07:41:42.804Z,100361.94
2022-11-05T07:44:11.658Z,100361.22
2022-11-05T07:46:40.023Z,100367.47
2022-11-05T07:49:08.685Z,100358.94
2022-11-05T07:51:37.006Z,100367.78
2022-11-05T07:54:05.465Z,100369.72
2022-11-05T07:56:33.808Z,100360.47
2022-11-05T07:59:03.579Z,100366.78
2022-11-05T08:01:32.169Z,100367.09
2022-11-05T08:04:00.701Z,100375.19
2022-11-05T08:06:29.085Z,100375.47
2022-11-05T08:08:57.376Z,100376.78
2022-11-05T08:11:25.774Z,100373.72
2022-11-05T08:13:54.179Z,100372.38
2022-11-05T08:16:23.910Z,100369.28
2022-11-05T08:18:52.240Z,100372.22
2022-11-05T08:21:20.653Z,100367.41
2022-11-05T08:23:48.959Z,100379.88
2022-11-05T08:26:17.281Z,100372.38
2022-11-05T08:28:45.661Z,100377.94
2022-11-05T08:31:15.298Z,100381.72
2022-11-05T08:33:45.114Z,100376.00
2022-11-05T08:36:13.694Z,100378.88
2022-11-05T08:38:41.977Z,100385.25
2022-11-05T08:41:10.321Z,100379.44
2022-11-05T08:43:38.710Z,100380.63
2022-11-05T08:46:07.227Z,100392.22
2022-11-05T08:48:35.569Z,100383.84
2022-11-05T08:51:05.536Z,100389.34
2022-11-05T08:53:33.915Z,100389.59
2022-11-05T08:56:02.322Z,100389.91
2022-11-05T08:58:30.864Z,100391.06
2022-11-05T09:01:04.703Z,100398.25
2022-11-05T09:03:33.503Z,100390.72
2022-11-05T09:06:01.911Z,100395.44
2022-11-05T09:08:31.693Z,100402.63
2022-11-05T09:11:00.068Z,100399.41
2022-11-05T09:13:28.527Z,100405.78
2022-11-05T09:15:59.219Z,100405.13
2022-11-05T09:18:27.661Z,100400.25
2022-11-05T09:20:56.175Z,100401.34
2022-11-05T09:23:24.630Z,100406.84
2022-11-05T09:25:54.349Z,100411.41
2022-11-05T09:28:24.074Z,100406.44
2022-11-05T09:30:53.842Z,100408.44
2022-11-05T09:33:23.925Z,100407.88
2022-11-05T09:35:53.609Z,100408.09
2022-11-05T09:38:22.110Z,100402.25
2022-11-05T09:40:58.657Z,100403.41
2022-11-05T09:43:32.594Z,100409.75
2022-11-05T09:46:08.485Z,100410.03
2022-11-05T09:48:39.675Z,100408.59
2022-11-05T09:51:08.284Z,100414.97
2022-11-05T09:53:40.530Z,100412.66
2022-11-05T09:56:22.057Z,100405.97
2022-11-05T09:58:55.645Z,100414.97
2022-11-05T10:01:26.952Z,100406.56
2022-11-05T10:03:59.032Z,100411.19
2022-11-05T10:06:28.676Z,100411.38
2022-11-05T10:09:06.661Z,100405.59
2022-11-05T10:11:41.828Z,100420.59
2022-11-05T10:14:17.639Z,100418.22
2022-11-05T10:16:53.998Z,100413.19
2022-11-05T10:19:26.444Z,100416.00
2022-11-05T10:22:06.520Z,100414.56
2022-11-05T10:24:35.744Z,100414.78
2022-11-05T10:27:06.443Z,100412.38
2022-11-05T10:29:36.221Z,100417.84
2022-11-05T10:32:07.214Z,100412.81
2022-11-05T10:34:39.211Z,100416.50
2022-11-05T10:37:07.736Z,100414.13
2022-11-05T10:39:36.211Z,100415.25
2022-11-05T10:42:19.979Z,100420.72
2022-11-05T10:44:54.716Z,100420.06
2022-11-05T10:47:46.645Z,100422.06
2022-11-05T10:50:19.498Z,100429.28
2022-11-05T10:52:57.133Z,100418.13
2022-11-05T10:55:27.101Z,100426.13
2022-11-05T10:58:07.903Z,100427.22
2022-11-05T11:00:36.988Z,100424.81
2022-11-05T11:03:07.266Z,100425.88
2022-11-05T11:05:39.073Z,100425.22
2022-11-05T11:08:24.351Z,100425.41
2022-11-05T11:10:56.643Z,100422.06
2022-11-05T11:13:27.905Z,100419.53
2022-11-05T11:16:13.883Z,100420.56
2022-11-05T11:18:44.967Z,100419.81
2022-11-05T11:21:17.277Z,100419.03
2022-11-05T11:23:55.342Z,100419.19
2022-11-05T11:26:25.519Z,100421.91
2022-11-05T11:28:59.004Z,100420.44
2022-11-05T11:31:30.120Z,100418.94
2022-11-05T11:34:02.229Z,100421.78
2022-11-05T11:36:36.648Z,100417.63
2022-11-05T11:39:08.028Z,100416.91
2022-11-05T11:41:41.846Z,100414.44
2022-11-05T11:44:18.896Z,100419.75
2022-11-05T11:46:50.389Z,100418.09
2022-11-05T11:49:33.096Z,100418.22
2022-11-05T11:52:05.150Z,100421.78
2022-11-05T11:54:34.832Z,100421.00
2022-11-05T11:57:03.295Z,100417.56
2022-11-05T12:00:06.533Z,100415.84
2022-11-05T12:03:03.902Z,100412.38
2022-11-05T12:05:42.314Z,100408.91
2022-11-05T12:08:23.611Z,100403.66
2022-11-05T12:11:00.695Z,100409.75
2022-11-05T12:13:55.620Z,100410.59
2022-11-05T12:16:38.759Z,100407.97
2022-11-05T12:19:20.916Z,100408.84
2022-11-05T12:21:59.285Z,100413.28
2022-11-05T12:24:51.347Z,100408.09
2022-11-05T12:27:34.482Z,100407.22
2022-11-05T12:30:06.334Z,100407.31
2022-11-05T12:33:04.511Z,100410.78
2022-11-05T12:35:48.089Z,100408.16
2022-11-05T12:38:32.510Z,100404.59
2022-11-05T12:41:16.551Z,100396.75
2022-11-05T12:43:57.097Z,100402.03
2022-11-05T12:46:35.208Z,100408.25
2022-11-05T12:49:34.108Z,100402.19
2022-11-05T12:52:16.995Z,100398.75
2022-11-05T12:54:59.457Z,100395.22
2022-11-05T12:57:30.624Z,100387.47
2022-11-05T13:00:20.444Z,100387.47
2022-11-05T13:02:53.719Z,100387.34
2022-11-05T13:05:37.467Z,100382.16
2022-11-05T13:08:11.128Z,100383.97
2022-11-05T13:10:43.737Z,100374.34
2022-11-05T13:13:16.558Z,100370.00
2022-11-05T13:15:51.820Z,100382.28
2022-11-05T13:18:24.267Z,100382.28
2022-11-05T13:20:57.383Z,100379.66
2022-11-05T13:23:32.280Z,100377.88
2022-11-05T13:26:04.396Z,100383.97
2022-11-05T13:28:37.949Z,100383.97
2022-11-05T13:31:12.664Z,100380.50
2022-11-05T13:33:44.781Z,100368.31
2022-11-05T13:36:35.719Z,100366.56
2022-11-05T13:39:14.076Z,100368.38
2022-11-05T13:41:54.906Z,100360.63
2022-11-05T13:44:55.034Z,100351.97
2022-11-05T13:47:40.386Z,100346.78
2022-11-05T13:50:42.125Z,100348.69
2022-11-05T13:53:55.058Z,100353.09
2022-11-05T13:56:41.561Z,100340.88
2022-11-05T13:59:40.930Z,100334.75
2022-11-05T14:02:16.702Z,100341.75
2022-11-05T14:04:48.933Z,100342.59
2022-11-05T14:07:20.666Z,100343.44
2022-11-05T14:09:56.929Z,100344.25
2022-11-05T14:12:30.477Z,100334.56
2022-11-05T14:15:04.825Z,100336.34
2022-11-05T14:17:36.457Z,100335.44
2022-11-05T14:20:24.847Z,100332.81
2022-11-05T14:22:54.206Z,100336.25
2022-11-05T14:26:02.188Z,100333.63
2022-11-05T14:28:44.669Z,100329.25
2022-11-05T14:31:54.401Z,100324.81
2022-11-05T14:34:42.926Z,100321.31
2022-11-05T14:37:41.477Z,100327.38
2022-11-05T14:40:36.247Z,100313.34
2022-11-05T14:43:08.240Z,100315.88
2022-11-05T14:45:40.309Z,100310.63
2022-11-05T14:48:28.256Z,100310.56
2022-11-05T14:50:57.005Z,100320.13
2022-11-05T14:53:31.230Z,100306.94
2022-11-05T14:56:04.514Z,100318.28
2022-11-05T14:58:35.883Z,100323.44
2022-11-05T15:01:07.439Z,100316.41
2022-11-05T15:04:01.617Z,100325.13
2022-11-05T15:06:33.168Z,100328.59
2022-11-05T15:09:26.553Z,100327.66
2022-11-05T15:12:09.054Z,100329.34
2022-11-05T15:14:48.033Z,100328.44
2022-11-05T15:17:22.886Z,100323.19
2022-11-05T15:19:53.400Z,100328.44
2022-11-05T15:22:31.457Z,100327.50
2022-11-05T15:25:00.253Z,100324.81
2022-11-05T15:27:50.188Z,100319.47
2022-11-05T15:30:20.694Z,100315.91
2022-11-05T15:32:50.655Z,100315.81
2022-11-05T15:35:25.289Z,100310.50
2022-11-05T15:38:00.384Z,100310.44
2022-11-05T15:40:32.465Z,100310.34
2022-11-05T15:43:12.168Z,100303.25
2022-11-05T15:45:40.990Z,100311.03
2022-11-05T15:48:20.808Z,100313.53
2022-11-05T15:50:49.620Z,100323.09
2022-11-05T15:53:44.255Z,100327.41
2022-11-05T15:56:15.673Z,100326.41
2022-11-05T15:58:48.665Z,100326.38
2022-11-05T16:01:22.793Z,100329.81
2022-11-05T16:03:54.188Z,100314.91
2022-11-05T16:06:35.392Z,100317.47
2022-11-05T16:09:04.743Z,100314.78
2022-11-05T16:11:33.224Z,100320.03
2022-11-05T16:14:16.945Z,100326.13
2022-11-05T16:16:46.548Z,100324.25
2022-11-05T16:19:40.096Z,100331.22
2022-11-05T16:22:09.989Z,100330.31
2022-11-05T16:24:38.314Z,100320.59
2022-11-05T16:27:07.027Z,100326.69
2022-11-05T16:29:37.117Z,100324.00
2022-11-05T16:32:15.331Z,100327.44
2022-11-05T16:34:48.760Z,100326.53
2022-11-05T16:37:21.717Z,100329.97
2022-11-05T16:39:50.121Z,100337.00
2022-11-05T16:42:39.782Z,100330.75
2022-11-05T16:45:11.728Z,100334.22
2022-11-05T16:47:40.171Z,100338.56
2022-11-05T16:50:22.181Z,100331.56
2022-11-05T16:52:51.009Z,100327.19
2022-11-05T16:55:20.110Z,100333.22
2022-11-05T16:57:52.314Z,100328.84
2022-11-05T17:00:22.246Z,100330.59
2022-11-05T17:02:51.423Z,100333.16
2022-11-05T17:05:24.821Z,100334.03
2022-11-05T17:07:53.330Z,100336.63
2022-11-05T17:10:23.104Z,100334.81
2022-11-05T17:12:51.859Z,100332.19
2022-11-05T17:15:23.630Z,100334.75
2022-11-05T17:17:53.839Z,100342.59
2022-11-05T17:20:31.460Z,100332.97
2022-11-05T17:23:02.569Z,100326.81
2022-11-05T17:25:30.960Z,100329.44
2022-11-05T17:27:59.832Z,100324.19
2022-11-05T17:30:28.296Z,100326.81
2022-11-05T17:32:56.768Z,100328.53
2022-11-05T17:35:27.124Z,100325.00
2022-11-05T17:37:55.482Z,100325.00
2022-11-05T17:40:24.799Z,100324.13
2022-11-05T17:42:53.443Z,100330.16
2022-11-05T17:45:21.805Z,100329.34
2022-11-05T17:47:50.226Z,100329.34
2022-11-05T17:50:19.142Z,100325.78
2022-11-05T17:52:48.858Z,100321.34
2022-11-05T17:55:17.630Z,100331.81
2022-11-05T17:57:48.370Z,100334.44
2022-11-05T18:00:19.787Z,100344.91
2022-11-05T18:02:49.497Z,100340.53
2022-11-05T18:05:19.295Z,100338.72
2022-11-05T18:07:49.469Z,100344.81
2022-11-05T18:10:18.270Z,100338.72
2022-11-05T18:12:47.177Z,100343.94
2022-11-05T18:15:16.423Z,100351.72
2022-11-05T18:17:45.570Z,100355.22
2022-11-05T18:20:18.982Z,100352.59
2022-11-05T18:22:50.818Z,100353.47
2022-11-05T18:25:19.540Z,100356.94
2022-11-05T18:27:47.866Z,100348.16
2022-11-05T18:30:16.236Z,100356.03
2022-11-05T18:32:45.733Z,100339.41
2022-11-05T18:35:14.585Z,100346.34
2022-11-05T18:37:43.403Z,100342.84
2022-11-05T18:40:13.656Z,100340.22
2022-11-05T18:42:42.734Z,100346.31
2022-11-05T18:45:12.126Z,100350.66
2022-11-05T18:47:40.549Z,100342.75
2022-11-05T18:50:10.571Z,100340.16
2022-11-05T18:52:39.021Z,100341.00
2022-11-05T18:55:08.937Z,100333.09
2022-11-05T18:57:39.129Z,100337.44
2022-11-05T19:00:08.790Z,100333.94
2022-11-05T19:02:37.358Z,100340.88
2022-11-05T19:05:27.927Z,100341.63
2022-11-05T19:07:55.301Z,100342.50
2022-11-05T19:10:23.704Z,100345.97
2022-11-05T19:12:53.562Z,100336.38
2022-11-05T19:15:21.956Z,100345.88
2022-11-05T19:17:50.293Z,100341.47
2022-11-05T19:20:18.672Z,100344.94
2022-11-05T19:22:47.060Z,100351.03
2022-11-05T19:25:15.449Z,100346.63
2022-11-05T19:27:44.857Z,100339.63
2022-11-05T19:30:14.838Z,100345.69
2022-11-05T19:32:43.225Z,100344.78
2022-11-05T19:35:11.560Z,100342.16
2022-11-05T19:37:39.907Z,100342.16
2022-11-05T19:40:09.849Z,100350.81
2022-11-05T19:42:38.285Z,100349.94
2022-11-05T19:45:30.135Z,100342.03
2022-11-05T19:47:57.643Z,100340.25
2022-11-05T19:50:26.275Z,100335.88
2022-11-05T19:52:54.658Z,100342.81
2022-11-05T19:55:23.036Z,100341.06
2022-11-05T19:57:51.541Z,100331.38
2022-11-05T20:00:20.229Z,100340.09
2022-11-05T20:02:48.662Z,100328.69
2022-11-05T20:05:19.103Z,100324.25
2022-11-05T20:07:52.763Z,100330.34
2022-11-05T20:10:22.175Z,100332.88
2022-11-05T20:12:50.710Z,100339.78
2022-11-05T20:15:19.755Z,100344.13
2022-11-05T20:17:52.151Z,100362.34
2022-11-05T20:20:22.027Z,100351.78
2022-11-05T20:22:52.597Z,100351.78
2022-11-05T20:25:20.942Z,100354.34
2022-11-05T20:27:49.310Z,100351.66
2022-11-05T20:30:18.545Z,100350.78
2022-11-05T20:32:46.871Z,100348.13
2022-11-05T20:35:15.229Z,100346.34
2022-11-05T20:37:48.415Z,100344.56
2022-11-05T20:40:19.589Z,100330.56
2022-11-05T20:42:47.947Z,100325.28
2022-11-05T20:45:16.330Z,100330.47
2022-11-05T20:47:44.744Z,100333.88
2022-11-05T20:50:13.141Z,100333.81
2022-11-05T20:52:41.505Z,100337.25
2022-11-05T20:55:11.456Z,100337.16
2022-11-05T20:57:39.808Z,100336.25
2022-11-05T21:00:09.465Z,100339.72
2022-11-05T21:02:39.564Z,100347.50
2022-11-05T21:05:09.106Z,100352.72
2022-11-05T21:07:37.718Z,100356.19
2022-11-05T21:10:07.062Z,100357.06
2022-11-05T21:12:36.825Z,100366.63
2022-11-05T21:15:06.053Z,100364.03
2022-11-05T21:17:34.384Z,100366.63
2022-11-05T21:20:02.814Z,100372.69
2022-11-05T21:22:31.409Z,100368.31
2022-11-05T21:24:59.781Z,100358.69
2022-11-05T21:27:28.180Z,100368.19
2022-11-05T21:29:57.919Z,100357.66
2022-11-05T21:32:26.362Z,100355.84
2022-11-05T21:34:54.707Z,100360.13
2022-11-05T21:37:23.060Z,100355.69
2022-11-05T21:39:51.511Z,100339.97
2022-11-05T21:42:19.893Z,100320.75
2022-11-05T21:44:48.318Z,100329.41
2022-11-05T21:47:18.056Z,100318.84
2022-11-05T21:49:46.457Z,100314.50
2022-11-05T21:52:32.177Z,100314.47
2022-11-05T21:55:17.793Z,100320.50
2022-11-05T21:58:03.365Z,100324.84
2022-11-05T22:00:32.543Z,100325.69
2022-11-05T22:03:02.325Z,100318.75
2022-11-05T22:05:30.697Z,100322.19
2022-11-05T22:07:59.065Z,100324.81
2022-11-05T22:10:27.426Z,100316.97
2022-11-05T22:12:55.753Z,100307.34
2022-11-05T22:15:24.076Z,100315.19
2022-11-05T22:17:52.548Z,100316.03
2022-11-05T22:20:22.252Z,100316.81
2022-11-05T22:22:50.759Z,100318.53
2022-11-05T22:25:19.206Z,100314.09
2022-11-05T22:27:47.624Z,100312.31
2022-11-05T22:30:16.118Z,100302.63
2022-11-05T22:32:46.107Z,100292.09
2022-11-05T22:35:14.429Z,100293.75
2022-11-05T22:37:44.132Z,100286.75
2022-11-05T22:40:12.888Z,100289.31
2022-11-05T22:42:41.291Z,100288.38
2022-11-05T22:45:10.893Z,100273.47
2022-11-05T22:47:39.234Z,100269.03
2022-11-05T22:50:08.157Z,100272.50
2022-11-05T22:52:36.509Z,100268.09
2022-11-05T22:55:06.980Z,100268.88
2022-11-05T22:57:35.374Z,100263.66
2022-11-05T23:00:04.797Z,100270.53
2022-11-05T23:02:33.350Z,100274.00
2022-11-05T23:05:01.792Z,100263.47
2022-11-05T23:07:47.583Z,100253.00
2022-11-05T23:10:35.174Z,100249.44
2022-11-05T23:13:04.247Z,100256.44
2022-11-05T23:15:50.078Z,100259.88
2022-11-05T23:18:35.732Z,100262.50
2022-11-05T23:21:23.154Z,100271.16
2022-11-05T23:24:07.078Z,100266.75
2022-11-05T23:26:51.113Z,100261.53
2022-11-05T23:29:21.055Z,100260.59
2022-11-05T23:32:07.265Z,100258.00
2022-11-05T23:34:35.680Z,100246.63
2022-11-05T23:37:21.334Z,100245.72
2022-11-05T23:39:50.202Z,100253.50
2022-11-05T23:42:37.353Z,100246.47
2022-11-05T23:45:24.541Z,100243.78
2022-11-05T23:48:10.345Z,100241.94
2022-11-05T23:50:40.204Z,100239.28
2022-11-05T23:53:10.264Z,100246.19
2022-11-05T23:55:39.444Z,100244.38
2022-11-05T23:58:09.957Z,100238.22
